Time;durP1;ratioP1;P1;durP2;ratioP2;P2;SDS_P1;SDS_P2;PMS_P1;PMS_P2;Temp;Humidity;BMP_temperature;BMP_pressure;BME280_temperature;BME280_humidity;BME280_pressure;Samples;Min_cycle;Max_cycle;Signal;HPM_P1;HPM_P2
2021/12/15 00:01:45;;;;;;;87.53;44.10;;;;;;;;;;4982241;28;100266;-71
2021/12/15 00:04:13;;;;;;;94.88;43.85;;;;;;;;;;4969537;28;99739;-71
2021/12/15 00:06:40;;;;;;;92.32;45.47;;;;;;;;;;4970447;28;100812;-71
2021/12/15 00:09:09;;;;;;;89.25;44.53;;;;;;;;;;4980201;28;100042;-72
2021/12/15 00:11:37;;;;;;;85.65;42.95;;;;;;;;;;4989902;28;98583;-71
2021/12/15 00:14:08;;;;;;;83.97;43.03;;;;;;;;;;4990237;28;100099;-72
2021/12/15 00:16:35;;;;;;;96.07;45.95;;;;;;;;;;4988802;28;99921;-71
2021/12/15 00:19:01;;;;;;;98.18;45.10;;;;;;;;;;4990167;28;98863;-71
2021/12/15 00:21:28;;;;;;;91.50;45.45;;;;;;;;;;4993070;28;100581;-71
2021/12/15 00:23:54;;;;;;;91.22;44.38;;;;;;;;;;4989528;28;98622;-71
2021/12/15 00:26:21;;;;;;;93.20;45.35;;;;;;;;;;4977590;28;99577;-71
2021/12/15 00:28:49;;;;;;;94.93;43.78;;;;;;;;;;4969592;28;100230;-71
2021/12/15 00:31:17;;;;;;;96.00;47.05;;;;;;;;;;4968784;28;98662;-71
2021/12/15 00:33:44;;;;;;;89.50;46.10;;;;;;;;;;4969776;28;101056;-71
2021/12/15 00:36:11;;;;;;;95.72;46.28;;;;;;;;;;4967963;28;100913;-71
2021/12/15 00:38:38;;;;;;;87.85;44.85;;;;;;;;;;4969192;28;99309;-71
2021/12/15 00:41:04;;;;;;;99.45;48.13;;;;;;;;;;4988841;28;99988;-71
2021/12/15 00:43:31;;;;;;;98.63;48.53;;;;;;;;;;4991877;28;99175;-71
2021/12/15 00:45:58;;;;;;;98.65;49.35;;;;;;;;;;4989827;28;99400;-71
2021/12/15 00:48:24;;;;;;;98.38;48.88;;;;;;;;;;4989137;28;100264;-71
2021/12/15 00:50:51;;;;;;;104.05;48.53;;;;;;;;;;4987767;28;98865;-71
2021/12/15 00:53:17;;;;;;;100.45;50.97;;;;;;;;;;4990426;28;100456;-71
2021/12/15 00:55:44;;;;;;;101.00;50.65;;;;;;;;;;5000562;28;99397;-71
2021/12/15 00:58:12;;;;;;;110.78;50.45;;;;;;;;;;4989228;28;99149;-71
2021/12/15 01:00:44;;;;;;;104.65;50.97;;;;;;;;;;4989575;28;99089;-71
2021/12/15 01:03:12;;;;;;;105.47;53.92;;;;;;;;;;4989224;28;100129;-71
2021/12/15 01:05:41;;;;;;;99.78;51.63;;;;;;;;;;4990451;28;99051;-71
2021/12/15 01:08:09;;;;;;;98.32;51.00;;;;;;;;;;4988299;28;100624;-71
2021/12/15 01:11:15;;;;;;;107.15;52.50;;;;;;;;;;5021241;28;97854;-71
2021/12/15 01:21:47;;;;;;;102.40;52.88;;;;;;;;;;4988720;28;100327;-71
2021/12/15 01:24:13;;;;;;;97.07;52.60;;;;;;;;;;5007447;28;99434;-71
2021/12/15 01:26:40;;;;;;;88.25;47.40;;;;;;;;;;4996850;28;98559;-71
2021/12/15 01:29:07;;;;;;;98.78;51.75;;;;;;;;;;4989122;28;100600;-71
2021/12/15 01:31:33;;;;;;;84.70;52.53;;;;;;;;;;4988850;28;98487;-71
2021/12/15 01:34:00;;;;;;;106.03;54.40;;;;;;;;;;4988455;28;99317;-71
2021/12/15 01:36:26;;;;;;;95.40;53.97;;;;;;;;;;5020743;28;100514;-71
2021/12/15 01:38:53;;;;;;;90.30;52.00;;;;;;;;;;4989431;28;98644;-71
2021/12/15 01:41:22;;;;;;;85.15;51.42;;;;;;;;;;5020266;28;100721;-71
2021/12/15 01:46:55;;;;;;;91.30;52.83;;;;;;;;;;4988697;28;98680;-71
2021/12/15 01:49:21;;;;;;;97.75;54.47;;;;;;;;;;4991852;28;99450;-71
2021/12/15 01:51:48;;;;;;;97.47;54.05;;;;;;;;;;4989016;28;98547;-71
2021/12/15 01:54:15;;;;;;;103.18;53.17;;;;;;;;;;4988221;28;100040;-71
2021/12/15 01:56:42;;;;;;;94.07;54.40;;;;;;;;;;4988230;28;99738;-71
2021/12/15 01:59:10;;;;;;;83.20;51.05;;;;;;;;;;4987591;28;98980;-71
2021/12/15 02:01:36;;;;;;;92.07;51.70;;;;;;;;;;4986552;28;100164;-71
2021/12/15 02:04:03;;;;;;;88.43;53.92;;;;;;;;;;4988457;28;99970;-71
2021/12/15 02:06:41;;;;;;;92.05;53.92;;;;;;;;;;5003632;28;98858;-71
2021/12/15 02:09:07;;;;;;;103.30;54.53;;;;;;;;;;4986241;28;99958;-71
2021/12/15 02:11:34;;;;;;;95.30;54.90;;;;;;;;;;4991741;28;99978;-71
2021/12/15 02:14:00;;;;;;;95.95;55.33;;;;;;;;;;4988605;28;99821;-71
2021/12/15 02:16:29;;;;;;;92.03;53.30;;;;;;;;;;4986081;28;101170;-71
2021/12/15 02:18:55;;;;;;;97.10;53.45;;;;;;;;;;4987032;28;98540;-71
2021/12/15 02:21:24;;;;;;;98.10;55.03;;;;;;;;;;5003065;28;101237;-71
2021/12/15 02:23:54;;;;;;;87.15;52.53;;;;;;;;;;5005972;28;101410;-71
2021/12/15 02:26:23;;;;;;;91.25;50.83;;;;;;;;;;5000114;28;98321;-71
2021/12/15 02:28:51;;;;;;;97.82;56.78;;;;;;;;;;4993731;28;100013;-71
2021/12/15 02:37:17;;;;;;;94.85;53.35;;;;;;;;;;4986217;28;101950;-70
2021/12/15 02:39:55;;;;;;;97.82;54.72;;;;;;;;;;4988324;28;98534;-71
2021/12/15 02:42:24;;;;;;;100.97;55.80;;;;;;;;;;4987604;28;99940;-71
2021/12/15 02:44:51;;;;;;;99.95;55.40;;;;;;;;;;4987170;28;100268;-71
2021/12/15 02:47:20;;;;;;;97.25;54.92;;;;;;;;;;4987895;28;98673;-71
2021/12/15 02:49:49;;;;;;;93.30;50.17;;;;;;;;;;4988301;28;99085;-71
2021/12/15 02:52:16;;;;;;;101.72;55.50;;;;;;;;;;4987059;28;100550;-71
2021/12/15 02:54:43;;;;;;;100.13;54.85;;;;;;;;;;4987905;28;98559;-71
2021/12/15 02:57:13;;;;;;;104.75;55.67;;;;;;;;;;4990272;28;100159;-71
2021/12/15 02:59:53;;;;;;;104.97;55.90;;;;;;;;;;4987924;28;99689;-71
2021/12/15 03:03:01;;;;;;;98.53;54.88;;;;;;;;;;4987614;28;100716;-71
2021/12/15 03:05:25;;;;;;;92.00;53.95;;;;;;;;;;4986988;28;99528;-71
2021/12/15 03:08:02;;;;;;;95.38;54.63;;;;;;;;;;4988004;28;98576;-71
2021/12/15 03:16:02;;;;;;;91.18;55.45;;;;;;;;;;4987700;28;99372;-71
2021/12/15 03:18:29;;;;;;;101.15;55.13;;;;;;;;;;4990386;28;100025;-71
2021/12/15 03:21:03;;;;;;;95.20;55.25;;;;;;;;;;4987265;28;98651;-71
2021/12/15 03:23:33;;;;;;;112.03;56.90;;;;;;;;;;5002149;28;99986;-71
2021/12/15 03:26:00;;;;;;;106.22;57.22;;;;;;;;;;5006268;28;100324;-71
2021/12/15 03:37:04;;;;;;;95.65;55.80;;;;;;;;;;5009152;28;100261;-71
2021/12/15 03:39:33;;;;;;;100.60;55.40;;;;;;;;;;5005458;28;100312;-70
2021/12/15 03:42:04;;;;;;;98.68;54.30;;;;;;;;;;5010044;28;100449;-71
2021/12/15 03:44:32;;;;;;;88.22;53.70;;;;;;;;;;4980199;28;100147;-71
2021/12/15 03:46:59;;;;;;;95.82;52.55;;;;;;;;;;4979200;28;100241;-71
2021/12/15 03:49:26;;;;;;;92.38;53.20;;;;;;;;;;4990938;28;98546;-71
2021/12/15 03:51:52;;;;;;;91.68;51.97;;;;;;;;;;4989994;28;99987;-71
2021/12/15 03:54:19;;;;;;;101.80;54.17;;;;;;;;;;4989590;28;100788;-70
2021/12/15 03:56:47;;;;;;;86.07;52.70;;;;;;;;;;4990851;28;98642;-71
2021/12/15 03:59:13;;;;;;;87.13;53.17;;;;;;;;;;4990221;28;99160;-71
2021/12/15 04:01:40;;;;;;;100.90;53.88;;;;;;;;;;4989908;28;99672;-71
2021/12/15 04:04:07;;;;;;;92.22;53.00;;;;;;;;;;4993709;28;98528;-71
2021/12/15 04:06:35;;;;;;;96.40;52.03;;;;;;;;;;4990005;28;100954;-71
2021/12/15 04:09:02;;;;;;;89.60;49.10;;;;;;;;;;4990561;28;98335;-71
2021/12/15 04:11:33;;;;;;;105.00;54.30;;;;;;;;;;4990630;28;99361;-71
2021/12/15 04:14:03;;;;;;;99.50;53.13;;;;;;;;;;4990072;28;100235;-71
2021/12/15 04:18:57;;;;;;;94.75;52.42;;;;;;;;;;4990386;28;100854;-71
2021/12/15 04:21:24;;;;;;;99.38;53.65;;;;;;;;;;4988854;28;100135;-71
2021/12/15 04:23:51;;;;;;;100.65;52.65;;;;;;;;;;4990354;28;98634;-71
2021/12/15 04:26:17;;;;;;;96.38;50.15;;;;;;;;;;4989113;28;99257;-71
2021/12/15 04:28:44;;;;;;;96.32;51.72;;;;;;;;;;4969466;28;98967;-71
2021/12/15 04:31:13;;;;;;;91.50;51.67;;;;;;;;;;4970366;28;100066;-71
2021/12/15 04:33:42;;;;;;;95.03;52.38;;;;;;;;;;4970503;28;99926;-71
2021/12/15 04:36:10;;;;;;;93.35;49.55;;;;;;;;;;4970056;28;98538;-71
2021/12/15 04:38:38;;;;;;;98.47;52.10;;;;;;;;;;4970122;28;100055;-71
2021/12/15 04:41:08;;;;;;;100.43;51.60;;;;;;;;;;4989321;28;100375;-71
2021/12/15 04:43:40;;;;;;;110.57;55.08;;;;;;;;;;4988211;28;98613;-71
2021/12/15 04:46:08;;;;;;;97.28;50.83;;;;;;;;;;4996357;28;100626;-71
2021/12/15 04:48:35;;;;;;;103.82;52.17;;;;;;;;;;5011204;28;100259;-71
2021/12/15 04:51:03;;;;;;;85.88;49.35;;;;;;;;;;5007228;28;101001;-70
2021/12/15 04:53:29;;;;;;;111.95;52.75;;;;;;;;;;5009292;28;100181;-71
2021/12/15 04:55:56;;;;;;;90.10;50.03;;;;;;;;;;4994975;28;98737;-71
2021/12/15 04:58:22;;;;;;;105.63;51.42;;;;;;;;;;4989463;28;100060;-70
2021/12/15 05:00:52;;;;;;;87.20;49.20;;;;;;;;;;4989269;28;100342;-70
2021/12/15 05:03:19;;;;;;;104.28;52.42;;;;;;;;;;4989891;28;99942;-70
2021/12/15 05:05:45;;;;;;;91.28;50.17;;;;;;;;;;4988774;28;100247;-71
2021/12/15 05:08:12;;;;;;;86.53;49.35;;;;;;;;;;4989548;28;100415;-71
2021/12/15 05:10:39;;;;;;;99.38;51.58;;;;;;;;;;4991848;28;98624;-71
2021/12/15 05:13:06;;;;;;;92.40;50.47;;;;;;;;;;4989245;28;100375;-72
2021/12/15 05:15:33;;;;;;;93.97;49.67;;;;;;;;;;4989283;28;98549;-72
2021/12/15 05:17:59;;;;;;;96.53;50.85;;;;;;;;;;4988907;28;100545;-71
2021/12/15 05:20:26;;;;;;;94.03;50.88;;;;;;;;;;4987430;28;101591;-71
2021/12/15 05:22:54;;;;;;;95.68;51.47;;;;;;;;;;4989798;28;98219;-71
2021/12/15 05:25:20;;;;;;;102.05;51.47;;;;;;;;;;4988617;28;100254;-72
2021/12/15 05:27:47;;;;;;;98.05;49.42;;;;;;;;;;4989130;28;100258;-71
2021/12/15 05:30:15;;;;;;;99.80;52.25;;;;;;;;;;4992331;28;100173;-72
2021/12/15 05:32:42;;;;;;;102.72;49.97;;;;;;;;;;4987941;28;100289;-71
2021/12/15 05:35:10;;;;;;;96.43;51.45;;;;;;;;;;4988764;28;98500;-71
2021/12/15 05:37:37;;;;;;;101.80;50.08;;;;;;;;;;4988961;28;100497;-71
2021/12/15 05:40:05;;;;;;;108.47;51.33;;;;;;;;;;4987242;28;99235;-72
2021/12/15 05:42:31;;;;;;;104.25;52.40;;;;;;;;;;4988817;28;98523;-72
2021/12/15 05:44:57;;;;;;;87.05;48.40;;;;;;;;;;4989164;28;100252;-72
2021/12/15 05:47:25;;;;;;;107.63;50.17;;;;;;;;;;4988280;28;99915;-72
2021/12/15 05:49:52;;;;;;;107.70;49.78;;;;;;;;;;4998840;28;99034;-71
2021/12/15 05:52:19;;;;;;;109.90;54.17;;;;;;;;;;4994139;28;99675;-72
2021/12/15 05:54:46;;;;;;;103.78;52.88;;;;;;;;;;4994096;28;99608;-72
2021/12/15 05:57:12;;;;;;;103.72;52.50;;;;;;;;;;4990521;28;100906;-72
2021/12/15 05:59:39;;;;;;;110.45;51.95;;;;;;;;;;4988598;28;100602;-72
2021/12/15 06:02:06;;;;;;;116.82;52.42;;;;;;;;;;4988078;28;98586;-72
2021/12/15 06:04:33;;;;;;;107.82;52.63;;;;;;;;;;4988693;28;99208;-71
2021/12/15 06:07:00;;;;;;;125.35;57.20;;;;;;;;;;4987887;28;100342;-72
2021/12/15 06:09:26;;;;;;;117.05;53.90;;;;;;;;;;4988503;28;98483;-72
2021/12/15 06:11:53;;;;;;;111.82;53.00;;;;;;;;;;4988920;28;100219;-72
2021/12/15 06:14:24;;;;;;;111.40;54.35;;;;;;;;;;4991126;28;99246;-72
2021/12/15 06:16:53;;;;;;;119.93;55.63;;;;;;;;;;4988706;28;99098;-72
2021/12/15 06:19:20;;;;;;;108.57;53.28;;;;;;;;;;4987254;28;100992;-72
2021/12/15 06:21:46;;;;;;;115.82;52.55;;;;;;;;;;4987796;28;98922;-72
2021/12/15 06:24:12;;;;;;;122.18;55.60;;;;;;;;;;4987873;28;100367;-72
2021/12/15 06:26:39;;;;;;;117.63;55.30;;;;;;;;;;4986691;28;100278;-72
2021/12/15 06:29:05;;;;;;;114.10;53.45;;;;;;;;;;4987554;28;98520;-72
2021/12/15 06:31:32;;;;;;;127.03;56.00;;;;;;;;;;4987599;28;99652;-72
2021/12/15 06:33:59;;;;;;;115.05;53.47;;;;;;;;;;4988190;28;99487;-72
2021/12/15 06:36:27;;;;;;;119.95;54.05;;;;;;;;;;4991098;28;98026;-72
2021/12/15 06:38:54;;;;;;;121.32;53.83;;;;;;;;;;4987501;28;100265;-71
2021/12/15 06:41:21;;;;;;;129.98;56.67;;;;;;;;;;4987734;28;98524;-71
2021/12/15 06:43:51;;;;;;;127.65;56.00;;;;;;;;;;4987063;28;99921;-72
2021/12/15 06:59:43;;;;;;;114.22;52.72;;;;;;;;;;5001392;28;100087;-72
2021/12/15 07:02:10;;;;;;;130.43;54.50;;;;;;;;;;4989530;27;97802;-72
2021/12/15 07:04:37;;;;;;;124.30;53.78;;;;;;;;;;4987939;28;99299;-72
2021/12/15 07:07:04;;;;;;;124.03;53.15;;;;;;;;;;4989503;28;100171;-72
2021/12/15 07:09:33;;;;;;;136.57;54.88;;;;;;;;;;4991201;28;99248;-72
2021/12/15 07:12:00;;;;;;;131.90;52.65;;;;;;;;;;4991018;28;100878;-72
2021/12/15 07:14:26;;;;;;;144.38;53.72;;;;;;;;;;4991801;28;100650;-72
2021/12/15 07:16:55;;;;;;;133.10;54.63;;;;;;;;;;4993928;28;98498;-72
2021/12/15 07:22:07;;;;;;;116.75;47.95;;;;;;;;;;4995664;28;100056;-71
2021/12/15 07:24:34;;;;;;;119.80;51.47;;;;;;;;;;4991477;28;99996;-72
2021/12/15 07:27:01;;;;;;;135.10;51.38;;;;;;;;;;4992002;28;99180;-72
2021/12/15 07:29:28;;;;;;;132.38;53.90;;;;;;;;;;4993704;28;98573;-72
2021/12/15 07:31:54;;;;;;;135.45;52.80;;;;;;;;;;4986641;28;99074;-72
2021/12/15 07:34:21;;;;;;;124.88;51.47;;;;;;;;;;4988870;28;100671;-72
2021/12/15 07:36:47;;;;;;;136.02;52.30;;;;;;;;;;5009895;28;98529;-72
2021/12/15 07:39:15;;;;;;;133.98;52.63;;;;;;;;;;5010953;28;99299;-72
2021/12/15 07:41:50;;;;;;;133.32;52.63;;;;;;;;;;5002938;28;100555;-71
2021/12/15 07:44:17;;;;;;;128.45;51.42;;;;;;;;;;4990805;28;100384;-72
2021/12/15 07:46:47;;;;;;;127.95;51.05;;;;;;;;;;4989118;28;100375;-71
2021/12/15 07:49:14;;;;;;;139.20;55.22;;;;;;;;;;4990807;28;100548;-71
2021/12/15 07:51:44;;;;;;;126.35;51.42;;;;;;;;;;4991591;28;99480;-71
2021/12/15 07:54:10;;;;;;;120.97;50.10;;;;;;;;;;4988848;28;99935;-71
2021/12/15 07:56:36;;;;;;;120.88;48.35;;;;;;;;;;4990324;28;99080;-71
2021/12/15 07:59:03;;;;;;;134.32;53.25;;;;;;;;;;4990200;28;99992;-71
2021/12/15 08:01:29;;;;;;;119.82;49.60;;;;;;;;;;4988614;28;99523;-71
2021/12/15 08:03:56;;;;;;;105.63;45.75;;;;;;;;;;4994385;28;98517;-71
2021/12/15 08:06:24;;;;;;;127.68;51.15;;;;;;;;;;4989706;28;99588;-71
2021/12/15 08:08:51;;;;;;;132.55;50.78;;;;;;;;;;4989680;28;98631;-71
2021/12/15 08:11:18;;;;;;;135.52;50.05;;;;;;;;;;4989998;28;99466;-71
2021/12/15 08:13:45;;;;;;;126.60;51.28;;;;;;;;;;4989203;28;100301;-71
2021/12/15 08:16:14;;;;;;;130.73;50.67;;;;;;;;;;4992410;28;99248;-70
2021/12/15 08:18:41;;;;;;;66.75;36.03;;;;;;;;;;4986524;28;101555;-70
2021/12/15 08:21:08;;;;;;;104.45;44.95;;;;;;;;;;4978691;28;100407;-71
2021/12/15 08:23:35;;;;;;;101.55;47.42;;;;;;;;;;4997504;28;99828;-71
2021/12/15 08:26:02;;;;;;;104.32;45.33;;;;;;;;;;5002175;28;101343;-71
2021/12/15 08:28:29;;;;;;;108.40;45.28;;;;;;;;;;5007711;28;99815;-71
2021/12/15 08:30:55;;;;;;;117.97;48.50;;;;;;;;;;5003849;28;99360;-71
2021/12/15 08:33:22;;;;;;;112.15;45.92;;;;;;;;;;4979504;28;100705;-71
2021/12/15 08:35:58;;;;;;;119.30;47.08;;;;;;;;;;4990521;28;102527;-71
2021/12/15 08:38:26;;;;;;;109.97;49.20;;;;;;;;;;5007009;28;100080;-71
2021/12/15 08:40:52;;;;;;;104.57;46.63;;;;;;;;;;5009964;28;99732;-71
2021/12/15 08:43:19;;;;;;;102.10;45.17;;;;;;;;;;4992227;28;100470;-71
2021/12/15 08:45:51;;;;;;;116.38;46.35;;;;;;;;;;5007761;28;100109;-71
2021/12/15 08:48:17;;;;;;;110.37;47.23;;;;;;;;;;5005794;28;101420;-71
2021/12/15 08:50:44;;;;;;;113.35;47.63;;;;;;;;;;4990074;28;100787;-71
2021/12/15 08:53:11;;;;;;;109.53;47.00;;;;;;;;;;5004489;28;102605;-71
2021/12/15 08:55:40;;;;;;;101.97;46.70;;;;;;;;;;5009169;28;98520;-71
2021/12/15 08:58:07;;;;;;;105.25;45.72;;;;;;;;;;5008787;28;99495;-71
2021/12/15 09:00:33;;;;;;;102.78;44.92;;;;;;;;;;5008625;28;99878;-71
2021/12/15 09:03:00;;;;;;;105.30;46.67;;;;;;;;;;4999804;28;98897;-71
2021/12/15 09:05:26;;;;;;;104.43;42.97;;;;;;;;;;5007239;28;100020;-71
2021/12/15 09:07:54;;;;;;;106.90;45.85;;;;;;;;;;4998415;28;99837;-71
2021/12/15 09:10:22;;;;;;;100.30;46.95;;;;;;;;;;5011735;28;98623;-71
2021/12/15 09:12:48;;;;;;;92.30;43.67;;;;;;;;;;5006082;28;101255;-71
2021/12/15 09:15:15;;;;;;;96.88;43.58;;;;;;;;;;4989044;28;100196;-71
2021/12/15 09:17:41;;;;;;;94.53;43.30;;;;;;;;;;4987517;28;100192;-70
2021/12/15 09:20:10;;;;;;;94.03;43.63;;;;;;;;;;4990951;28;99356;-71
2021/12/15 09:22:38;;;;;;;85.18;40.78;;;;;;;;;;4992106;28;98674;-71
2021/12/15 09:25:08;;;;;;;89.38;41.60;;;;;;;;;;4986986;28;99416;-71
2021/12/15 09:27:36;;;;;;;78.00;40.40;;;;;;;;;;4995449;28;100471;-71
2021/12/15 09:30:07;;;;;;;89.00;41.65;;;;;;;;;;5008642;28;98033;-71
2021/12/15 09:32:33;;;;;;;87.30;42.53;;;;;;;;;;5010222;28;99947;-71
2021/12/15 09:35:00;;;;;;;78.00;39.00;;;;;;;;;;5008804;28;98582;-72
2021/12/15 09:37:28;;;;;;;80.18;40.60;;;;;;;;;;5002628;28;100048;-71
2021/12/15 09:39:55;;;;;;;76.93;39.80;;;;;;;;;;4984668;28;100219;-71
2021/12/15 09:42:29;;;;;;;76.25;38.70;;;;;;;;;;4987945;28;98551;-71
2021/12/15 09:45:02;;;;;;;71.60;37.78;;;;;;;;;;4988160;28;99229;-71
2021/12/15 10:12:18;;;;;;;60.83;33.03;;;;;;;;;;4994655;28;98661;-72
2021/12/15 10:17:48;;;;;;;62.85;31.42;;;;;;;;;;4990911;28;100270;-72
2021/12/15 10:20:18;;;;;;;53.38;31.73;;;;;;;;;;4987812;28;99107;-72
2021/12/15 10:22:47;;;;;;;56.83;32.25;;;;;;;;;;4988459;28;98428;-72
2021/12/15 10:25:16;;;;;;;40.53;26.08;;;;;;;;;;4988545;28;98558;-70
2021/12/15 10:28:03;;;;;;;52.50;30.42;;;;;;;;;;4988503;28;98881;-72
2021/12/15 10:30:39;;;;;;;51.25;31.02;;;;;;;;;;4985801;28;100936;-72
2021/12/15 10:33:08;;;;;;;48.65;30.38;;;;;;;;;;4988476;28;98519;-71
2021/12/15 10:35:40;;;;;;;49.08;28.35;;;;;;;;;;4986811;28;100219;-72
2021/12/15 10:38:17;;;;;;;44.75;28.08;;;;;;;;;;4987537;28;100349;-73
2021/12/15 10:41:05;;;;;;;39.70;27.30;;;;;;;;;;4990781;28;98572;-73
2021/12/15 10:43:33;;;;;;;40.05;28.02;;;;;;;;;;4986908;28;100244;-72
2021/12/15 10:46:04;;;;;;;54.72;29.70;;;;;;;;;;4987877;28;98958;-72
2021/12/15 10:48:37;;;;;;;47.22;27.80;;;;;;;;;;4987469;28;99425;-72
2021/12/15 10:51:18;;;;;;;44.30;28.88;;;;;;;;;;4987696;28;100353;-73
2021/12/15 10:53:45;;;;;;;45.78;27.75;;;;;;;;;;4986863;28;98682;-72
2021/12/15 10:56:12;;;;;;;36.05;22.60;;;;;;;;;;4989063;28;100500;-72
2021/12/15 10:58:41;;;;;;;38.60;25.70;;;;;;;;;;4997634;28;100588;-72
2021/12/15 11:01:26;;;;;;;42.75;25.92;;;;;;;;;;4977780;28;99425;-72
2021/12/15 11:03:52;;;;;;;41.28;25.85;;;;;;;;;;5009867;28;99434;-73
2021/12/15 11:06:27;;;;;;;40.00;25.55;;;;;;;;;;4976628;28;99802;-72
2021/12/15 11:09:12;;;;;;;31.77;23.55;;;;;;;;;;4991110;28;99945;-72
2021/12/15 11:11:54;;;;;;;38.05;24.58;;;;;;;;;;4971818;28;99984;-72
2021/12/15 11:14:24;;;;;;;32.53;22.17;;;;;;;;;;5001869;28;98751;-72
2021/12/15 11:17:09;;;;;;;34.40;22.70;;;;;;;;;;4999258;28;99432;-72
2021/12/15 11:19:41;;;;;;;32.63;20.95;;;;;;;;;;5001825;28;99603;-72
2021/12/15 11:22:26;;;;;;;31.20;21.40;;;;;;;;;;5000272;28;100798;-71
2021/12/15 11:24:55;;;;;;;28.65;19.65;;;;;;;;;;4989435;28;100527;-71
2021/12/15 11:27:22;;;;;;;25.30;19.00;;;;;;;;;;4996886;28;100221;-72
2021/12/15 11:29:48;;;;;;;29.48;17.63;;;;;;;;;;4993776;28;99206;-72
2021/12/15 11:32:34;;;;;;;24.98;16.58;;;;;;;;;;4984084;28;100478;-72
2021/12/15 11:35:05;;;;;;;29.23;17.55;;;;;;;;;;5004360;28;98666;-71
2021/12/15 11:37:48;;;;;;;25.33;16.40;;;;;;;;;;4999293;28;100520;-71
2021/12/15 11:40:22;;;;;;;24.42;15.25;;;;;;;;;;5006934;28;98787;-72
2021/12/15 11:42:49;;;;;;;27.33;15.38;;;;;;;;;;4977255;28;98612;-72
2021/12/15 11:45:15;;;;;;;21.27;14.45;;;;;;;;;;4998156;28;100392;-72
2021/12/15 11:47:41;;;;;;;19.02;13.32;;;;;;;;;;4991053;28;101017;-71
2021/12/15 11:50:14;;;;;;;23.27;13.95;;;;;;;;;;4991262;28;100509;-72
2021/12/15 11:52:42;;;;;;;18.98;13.27;;;;;;;;;;4993961;28;100259;-72
2021/12/15 11:55:20;;;;;;;19.33;14.02;;;;;;;;;;4994326;28;98574;-72
2021/12/15 11:57:46;;;;;;;17.08;13.93;;;;;;;;;;4993462;28;100021;-72
2021/12/15 12:00:15;;;;;;;20.83;12.20;;;;;;;;;;4994145;28;100334;-72
2021/12/15 12:02:43;;;;;;;17.33;12.23;;;;;;;;;;5010381;28;98540;-72
2021/12/15 12:05:14;;;;;;;17.10;12.40;;;;;;;;;;4997875;28;100055;-72
2021/12/15 12:07:47;;;;;;;18.98;12.50;;;;;;;;;;4983425;28;100269;-71
2021/12/15 12:10:21;;;;;;;21.48;13.30;;;;;;;;;;4982752;28;99535;-72
2021/12/15 12:12:53;;;;;;;19.27;12.43;;;;;;;;;;4987837;28;101454;-72
2021/12/15 12:15:21;;;;;;;13.27;9.82;;;;;;;;;;4982151;28;100226;-72
2021/12/15 12:17:48;;;;;;;15.80;12.07;;;;;;;;;;4977530;28;101043;-72
2021/12/15 12:20:26;;;;;;;17.92;12.27;;;;;;;;;;4979438;28;100058;-72
2021/12/15 12:22:54;;;;;;;16.63;11.63;;;;;;;;;;4975955;28;100712;-72
2021/12/15 12:25:29;;;;;;;17.98;11.00;;;;;;;;;;4976165;28;100021;-72
2021/12/15 12:27:57;;;;;;;18.35;11.27;;;;;;;;;;4978072;28;100993;-72
2021/12/15 12:30:25;;;;;;;19.30;12.80;;;;;;;;;;4975121;28;99309;-72
2021/12/15 12:32:53;;;;;;;18.73;12.55;;;;;;;;;;4978677;28;99404;-73
2021/12/15 12:35:21;;;;;;;14.30;11.10;;;;;;;;;;4981369;28;101062;-73
2021/12/15 12:37:55;;;;;;;14.93;9.98;;;;;;;;;;4986571;28;100118;-73
2021/12/15 12:40:24;;;;;;;16.17;10.60;;;;;;;;;;4990062;28;101529;-73
2021/12/15 12:42:51;;;;;;;16.05;10.65;;;;;;;;;;4986759;28;99066;-72
2021/12/15 12:45:18;;;;;;;29.30;11.10;;;;;;;;;;4984232;28;100006;-72
2021/12/15 12:48:02;;;;;;;13.48;10.18;;;;;;;;;;4987331;28;100319;-72
2021/12/15 12:50:49;;;;;;;17.17;9.98;;;;;;;;;;4995657;28;99015;-72
2021/12/15 12:59:38;;;;;;;19.90;10.00;;;;;;;;;;4987005;28;98725;-72
2021/12/15 13:02:26;;;;;;;16.20;10.00;;;;;;;;;;4985009;28;100089;-72
2021/12/15 13:04:56;;;;;;;21.00;10.10;;;;;;;;;;4981362;28;101193;-72
2021/12/15 13:07:41;;;;;;;18.05;10.52;;;;;;;;;;4986364;28;100771;-71
2021/12/15 13:10:07;;;;;;;22.63;10.05;;;;;;;;;;4981599;28;100405;-72
2021/12/15 13:12:39;;;;;;;18.88;9.88;;;;;;;;;;4991955;28;102685;-72
2021/12/15 13:15:11;;;;;;;17.90;9.57;;;;;;;;;;4990611;28;99976;-71
2021/12/15 13:17:52;;;;;;;19.08;10.50;;;;;;;;;;4994226;28;99930;-72
2021/12/15 13:20:22;;;;;;;16.63;9.30;;;;;;;;;;4989546;28;102509;-72
2021/12/15 13:23:05;;;;;;;19.83;10.10;;;;;;;;;;4998953;28;99974;-72
2021/12/15 13:31:27;;;;;;;16.15;8.50;;;;;;;;;;4988607;28;100370;-73
2021/12/15 13:33:53;;;;;;;16.00;8.93;;;;;;;;;;4990284;28;98685;-72
2021/12/15 13:36:20;;;;;;;13.60;7.93;;;;;;;;;;4989227;28;99832;-72
2021/12/15 13:38:46;;;;;;;13.98;8.45;;;;;;;;;;4988788;28;100099;-72
2021/12/15 13:42:00;;;;;;;17.65;8.60;;;;;;;;;;4990117;28;99077;-72
2021/12/15 13:44:29;;;;;;;10.90;6.82;;;;;;;;;;4973149;28;100093;-72
2021/12/15 13:47:01;;;;;;;13.27;7.90;;;;;;;;;;4969750;28;98594;-72
2021/12/15 13:49:32;;;;;;;15.47;8.10;;;;;;;;;;4970089;28;100068;-72
2021/12/15 13:52:04;;;;;;;15.80;8.77;;;;;;;;;;4968600;28;100675;-72
2021/12/15 13:54:33;;;;;;;17.85;9.00;;;;;;;;;;4969772;28;98928;-72
2021/12/15 13:57:02;;;;;;;14.55;8.82;;;;;;;;;;4974383;28;100612;-72
2021/12/15 13:59:33;;;;;;;14.10;8.57;;;;;;;;;;4988137;28;100144;-71
2021/12/15 14:02:10;;;;;;;18.17;8.40;;;;;;;;;;4989328;28;98591;-71
2021/12/15 14:04:40;;;;;;;13.48;8.18;;;;;;;;;;4992454;28;100014;-71
2021/12/15 14:07:29;;;;;;;17.15;9.00;;;;;;;;;;4989305;28;99109;-71
2021/12/15 14:10:00;;;;;;;22.65;8.48;;;;;;;;;;4990361;27;98547;-70
2021/12/15 14:12:45;;;;;;;14.93;7.85;;;;;;;;;;4987923;28;99763;-71
2021/12/15 14:15:14;;;;;;;15.60;8.13;;;;;;;;;;4989553;28;97782;-71
2021/12/15 14:17:40;;;;;;;10.57;7.72;;;;;;;;;;4988321;28;98716;-71
2021/12/15 14:20:14;;;;;;;16.77;7.18;;;;;;;;;;4988184;28;99671;-71
2021/12/15 14:22:41;;;;;;;20.00;8.18;;;;;;;;;;4990947;28;99396;-71
2021/12/15 14:25:08;;;;;;;14.60;6.97;;;;;;;;;;4989600;28;100913;-72
2021/12/15 14:27:34;;;;;;;14.73;6.28;;;;;;;;;;4990998;28;99597;-72
2021/12/15 14:30:00;;;;;;;12.50;7.10;;;;;;;;;;4989726;28;100106;-71
2021/12/15 14:32:29;;;;;;;12.70;7.05;;;;;;;;;;4990531;28;100264;-71
2021/12/15 14:34:55;;;;;;;8.77;6.28;;;;;;;;;;4988419;28;98580;-72
2021/12/15 14:37:22;;;;;;;16.05;7.07;;;;;;;;;;4988808;28;99881;-71
2021/12/15 14:39:50;;;;;;;20.25;8.18;;;;;;;;;;4988779;28;99074;-72
2021/12/15 14:42:25;;;;;;;15.98;7.30;;;;;;;;;;4987878;28;99547;-72
2021/12/15 14:44:53;;;;;;;17.00;8.52;;;;;;;;;;4989072;28;99923;-72
2021/12/15 14:47:22;;;;;;;13.63;9.10;;;;;;;;;;4987646;28;100730;-71
2021/12/15 14:49:53;;;;;;;15.40;9.00;;;;;;;;;;4992585;28;99821;-72
2021/12/15 14:52:21;;;;;;;14.00;8.23;;;;;;;;;;4988016;28;99610;-71
2021/12/15 14:54:49;;;;;;;16.15;8.30;;;;;;;;;;4988303;28;98590;-72
2021/12/15 14:57:20;;;;;;;19.80;9.98;;;;;;;;;;4988610;28;99766;-72
2021/12/15 14:59:52;;;;;;;17.23;9.10;;;;;;;;;;4987756;28;101095;-72
2021/12/15 15:02:26;;;;;;;18.47;9.87;;;;;;;;;;4987830;28;98775;-72
2021/12/15 15:04:56;;;;;;;21.45;9.73;;;;;;;;;;4989207;28;98868;-73
2021/12/15 15:07:28;;;;;;;14.27;9.52;;;;;;;;;;4988054;28;100345;-72
2021/12/15 15:09:55;;;;;;;18.63;10.67;;;;;;;;;;4988093;28;98586;-73
2021/12/15 15:12:25;;;;;;;21.30;11.65;;;;;;;;;;4990201;28;100531;-72
2021/12/15 15:14:55;;;;;;;25.55;11.82;;;;;;;;;;4987697;28;98554;-71
2021/12/15 15:17:25;;;;;;;20.42;13.02;;;;;;;;;;4977300;28;99588;-71
2021/12/15 15:19:52;;;;;;;19.70;13.52;;;;;;;;;;4966860;28;100410;-71
2021/12/15 15:22:21;;;;;;;20.75;12.52;;;;;;;;;;4967836;28;99918;-72
2021/12/15 15:24:48;;;;;;;21.02;13.32;;;;;;;;;;4967027;28;100214;-72
2021/12/15 15:27:15;;;;;;;23.00;15.23;;;;;;;;;;4987430;28;99164;-72
2021/12/15 15:29:44;;;;;;;26.25;15.07;;;;;;;;;;4991037;28;97820;-72
2021/12/15 15:32:13;;;;;;;24.15;15.70;;;;;;;;;;4990946;28;99043;-72
2021/12/15 15:34:42;;;;;;;29.38;15.63;;;;;;;;;;4994191;28;100195;-72
2021/12/15 15:37:12;;;;;;;24.90;15.80;;;;;;;;;;4989908;28;100155;-72
2021/12/15 15:39:39;;;;;;;25.48;16.85;;;;;;;;;;4989969;28;100076;-73
2021/12/15 15:42:06;;;;;;;28.75;17.55;;;;;;;;;;4990654;28;98950;-73
2021/12/15 15:44:36;;;;;;;39.45;18.98;;;;;;;;;;4990458;28;100199;-73
2021/12/15 15:47:03;;;;;;;31.40;19.55;;;;;;;;;;4990498;28;100507;-73
2021/12/15 15:49:29;;;;;;;27.98;20.13;;;;;;;;;;4990744;28;99901;-73
2021/12/15 15:51:57;;;;;;;29.17;19.77;;;;;;;;;;4989914;28;99438;-73